< < Back
Terminal Aerodrome Forecast


Current Version              Previous Versions:   1  2  3  4  5  6  7  8  9  

Terminal Aerodrome Forecast

395
FTUS42 KMLB 031504 AAA
TAFMCO
TAF AMD
KMCO 031504Z 0315/0412 23015G21KT P6SM -SHRA SCT012 BKN018 OVC060
      TEMPO 0315/0317 4SM -SHRA BKN012
     FM031700 23014G22KT P6SM VCSH SCT020 BKN060 OVC100
      TEMPO 0318/0321 3SM TSRA BKN020CB OVC040
     FM032200 24011KT P6SM VCSH SCT020 BKN080 OVC120
      TEMPO 0322/0324 5SM SHRA BKN025
     FM040100 23006KT P6SM SCT030 BKN120 OVC200
     FM040600 21004KT P6SM SCT100 OVC250=



Latest METAR

688
SAUS70 KWBC 031500 RRH
MTRMCO
METAR KMCO 031453Z 23016G21KT 10SM -RA BKN011 BKN042 OVC060 24/23 A2999
RMK RAE1357B46 SLP155 P0000 60000 T02440233 51022


USA.gov is the U.S. government's official web portal to all federal, state and local government web resources and services.